Latest Weather Observations for Moree

IDN60801

Issued at 12:32 pm EDT Sunday 22 January 2017 (issued every 30 minutes, with the page automatically refreshed every 10 minutes)

About weather observations | Map of weather stations | Latest weather observations for NSW | Other Formats
Station Details ID: 053115 Name: MOREE AERO Lat: -29.49 Lon: 149.85 Height: 213.0 m
Data from the previous 72 hours. | See also: Recent months at Moree
Date/Time
EDT
Temp
°C
App
Temp
°C
Dew
Point
°C
Rel
Hum
%
Delta-T
°C
Wind Press
QNH
hPa
Press
MSL
hPa
Rain since
9am
mm
Dir  Spd
km/h
Gust
km/h
Spd
kts
Gust
kts
22/12:30pm 32.4 30.6 17.8 41 9.5 NNE 24 37 13 20 1014.2 1012.9 0.0
22/12:00pm 31.0 28.5 17.0 43 8.9 NE 26 33 14 18 1014.5 1013.2 0.0
22/11:30am 29.7 27.0 16.5 45 8.3 NNE 26 37 14 20 1014.7 1013.4 0.0
22/11:00am 29.1 27.2 16.6 46 7.9 NNE 22 33 12 18 1015.1 1013.8 0.0
22/10:30am 27.8 25.5 16.7 50 7.0 NE 24 37 13 20 1015.3 1014.0 0.0
22/10:00am 27.1 24.8 16.7 53 6.5 NE 24 33 13 18 1015.3 1014.0 0.0
22/09:30am 26.7 23.5 17.2 56 6.0 NE 30 37 16 20 1015.2 1013.9 0.0
22/09:00am 25.6 22.7 17.0 59 5.4 NE 28 33 15 18 1015.1 1013.8 0.0
22/08:30am 24.8 22.3 17.0 62 4.9 NE 26 32 14 17 1014.9 1013.6 0.0
22/08:00am 23.5 21.9 16.5 65 4.3 ENE 20 28 11 15 1014.9 1013.6 0.0
22/07:30am 22.6 22.0 16.6 69 3.7 E 15 20 8 11 1014.4 1013.1 0.0
22/07:00am 21.2 20.7 16.8 76 2.7 E 15 20 8 11 1013.9 1012.6 0.0
22/06:30am 20.7 20.1 16.7 78 2.4 ENE 15 19 8 10 1013.5 1012.2 0.0
22/06:00am 21.3 19.8 16.7 75 2.8 ENE 20 26 11 14 1013.1 1011.7 0.0
22/05:30am 21.5 20.2 16.9 75 2.8 ENE 19 24 10 13 1012.9 1011.5 0.0
22/05:00am 21.2 20.4 17.2 78 2.5 ENE 17 22 9 12 1012.7 1011.3 0.0
22/04:30am 21.8 21.8 17.2 75 2.8 ENE 13 17 7 9 1012.4 1011.0 0.0
22/04:00am 22.2 21.5 17.3 74 3.0 ENE 17 20 9 11 1012.3 1010.9 0.0
22/03:30am 22.8 22.5 17.3 71 3.4 ENE 15 24 8 13 1012.1 1010.7 0.0
22/03:00am 23.5 21.9 17.5 69 3.8 ENE 22 28 12 15 1011.7 1010.4 0.0
22/02:30am 23.8 22.0 17.8 69 3.8 ENE 24 30 13 16 1012.1 1010.7 0.0
22/02:00am 24.2 21.9 18.4 70 3.7 ENE 28 35 15 19 1011.9 1010.5 0.0
22/01:30am 24.6 23.4 19.2 72 3.5 NE 24 32 13 17 1011.9 1010.5 0.0
22/01:00am 25.2 23.2 19.1 69 3.9 NE 28 35 15 19 1011.7 1010.4 0.0
22/12:30am 25.7 23.4 19.3 67 4.1 NE 30 37 16 20 1011.5 1010.2 0.0
22/12:00am 26.0 22.8 16.3 55 6.0 E 28 39 15 21 1011.2 1009.9 0.0
 
Date/Time
EDT
Temp
°C
App
Temp
°C
Dew
Point
°C
Rel
Hum
%
Delta-T
°C
Wind Press
QNH
hPa
Press
MSL
hPa
Rain since
9am
mm
Dir  Spd
km/h
Gust
km/h
Spd
kts
Gust
kts
21/11:57pm 25.8 22.9 16.1 55 6.0 E 26 35 14 19 1011.1 1009.8 0.0
21/11:30pm 26.0 25.5 13.8 47 7.3 SSE 9 11 5 6 1010.6 1009.3 0.0
21/11:00pm 25.6 25.4 11.7 42 8.0 S 4 7 2 4 1010.4 1009.1 0.0
21/10:30pm 26.2 25.0 11.5 40 8.4 W 9 9 5 5 1010.1 1008.8 0.0
21/10:00pm 27.8 26.7 11.8 37 9.3 WSW 9 11 5 6 1009.9 1008.6 0.0
21/09:30pm 27.5 26.9 12.3 39 8.9 W 7 9 4 5 1009.5 1008.2 0.0
21/09:00pm 28.5 27.3 11.6 35 9.8 W 9 11 5 6 1009.1 1007.7 0.0
21/08:30pm 30.2 28.9 11.2 31 11.1 SW 9 11 5 6 1008.6 1007.2 0.0
21/08:00pm 31.7 29.6 9.8 26 12.6 SW 11 13 6 7 1008.1 1006.7 0.0
21/07:30pm 33.8 30.4 9.1 22 14.1 SSW 17 20 9 11 1007.5 1006.1 0.0
21/07:00pm 34.4 29.6 8.9 21 14.6 SSW 24 30 13 16 1007.1 1005.7 0.0
21/06:30pm 34.9 30.8 10.0 22 14.5 SSW 22 32 12 17 1006.6 1005.3 0.0
21/06:00pm 35.2 31.2 8.1 19 15.4 WSW 19 30 10 16 1006.4 1005.1 0.0
21/05:30pm 35.2 31.2 8.1 19 15.4 WSW 19 32 10 17 1006.4 1005.1 0.0
21/05:00pm 35.0 30.9 8.7 20 15.1 WSW 20 32 11 17 1006.6 1005.3 0.0
21/04:30pm 35.0 30.5 10.1 22 14.5 WSW 24 33 13 18 1006.9 1005.6 0.0
21/04:00pm 34.8 30.1 10.6 23 14.3 SW 26 33 14 18 1007.1 1005.7 0.0
21/03:30pm 34.8 29.9 11.2 24 14.0 WSW 28 35 15 19 1007.4 1006.0 0.0
21/03:00pm 34.6 29.8 10.4 23 14.2 WSW 26 37 14 20 1007.6 1006.2 0.0
21/02:30pm 33.4 29.8 11.9 27 12.8 W 22 33 12 18 1007.8 1006.4 0.0
21/02:00pm 32.7 29.2 13.4 31 11.8 W 24 32 13 17 1008.0 1006.6 0.0
21/01:30pm 32.8 29.4 12.4 29 12.2 WSW 22 30 12 16 1008.2 1006.8 0.0
21/01:00pm 31.6 29.4 13.4 33 11.0 WSW 17 28 9 15 1008.4 1007.0 0.0
21/12:30pm 31.5 29.9 15.0 36 10.2 WSW 17 28 9 15 1008.6 1007.2 0.0
21/12:00pm 30.3 30.0 17.4 46 8.3 SSW 15 28 8 15 1008.7 1007.3 0.0
21/11:30am 29.2 28.0 16.0 44 8.2 SW 17 22 9 12 1008.8 1007.4 0.0
21/11:00am 28.6 27.8 17.2 50 7.2 SSW 17 30 9 16 1008.7 1007.3 0.0
21/10:30am 28.1 26.2 17.6 53 6.7 SW 24 32 13 17 1008.6 1007.2 0.0
21/10:00am 27.2 25.2 17.4 55 6.2 SSW 24 32 13 17 1008.3 1006.9 0.0
21/09:30am 27.0 25.1 18.6 60 5.4 SSW 26 33 14 18 1008.2 1006.8 0.0
21/09:00am 26.0 24.6 18.7 64 4.7 SSW 24 32 13 17 1008.0 1006.6 6.4
21/08:30am 25.3 23.3 19.2 69 3.9 SSW 28 35 15 19 1007.9 1006.5 6.4
21/08:00am 24.9 23.3 19.3 71 3.6 SSW 26 32 14 17 1007.7 1006.3 6.4
21/07:30am 24.4 24.6 20.5 79 2.6 SSW 20 26 11 14 1007.5 1006.1 6.4
21/07:00am 24.0 25.0 21.1 84 1.9 SW 17 22 9 12 1007.2 1005.8 6.4
21/06:30am 23.8 25.0 21.5 87 1.5 WSW 17 19 9 10 1006.6 1005.3 6.4
21/06:00am 24.4 26.7 22.1 87 1.5 WSW 13 17 7 9 1006.3 1005.0 6.4
21/05:30am 24.7 26.7 22.2 86 1.7 WSW 15 19 8 10 1006.1 1004.8 6.4
21/05:00am 24.8 27.2 22.3 86 1.7 WSW 13 15 7 8 1005.8 1004.5 6.4
21/04:30am 24.8 27.1 22.1 85 1.8 WSW 13 15 7 8 1005.5 1004.2 6.4
21/04:00am 24.9 25.7 21.4 81 2.3 WSW 19 24 10 13 1005.3 1004.0 6.4
21/03:30am 25.4 28.4 22.7 85 1.8 WSW 11 13 6 7 1005.3 1004.0 6.4
21/03:00am 25.6 27.9 22.7 84 2.0 SW 15 19 8 10 1005.2 1003.9 6.4
21/02:30am 26.1 28.3 22.6 81 2.4 SSW 15 19 8 10 1005.1 1003.8 6.2
21/02:00am 26.7 29.1 22.3 77 3.0 W 13 15 7 8 1004.9 1003.5 6.2
21/01:30am 26.7 29.2 22.5 78 2.9 W 13 17 7 9 1004.9 1003.5 6.2
21/01:00am 26.7 29.2 22.5 78 2.9 W 13 13 7 7 1004.9 1003.5 6.2
21/12:30am 27.3 29.6 22.0 73 3.6 WNW 13 15 7 8 1004.6 1003.2 6.2
21/12:00am 26.6 27.7 22.0 76 3.1 W 19 24 10 13 1004.5 1003.1 6.2
 
Date/Time
EDT
Temp
°C
App
Temp
°C
Dew
Point
°C
Rel
Hum
%
Delta-T
°C
Wind Press
QNH
hPa
Press
MSL
hPa
Rain since
9am
mm
Dir  Spd
km/h
Gust
km/h
Spd
kts
Gust
kts
20/11:30pm 27.3 28.6 22.3 74 3.4 WSW 19 26 10 14 1004.3 1002.9 6.2
20/11:00pm 26.6 30.2 22.4 78 2.9 WNW 7 9 4 5 1004.5 1003.1 6.2
20/10:30pm 25.9 29.9 23.8 88 1.5 N 9 9 5 5 1004.4 1003.0 6.2
20/10:00pm 25.5 29.4 23.6 89 1.3 N 9 11 5 6 1004.2 1002.8 6.2
20/09:30pm 25.3 28.7 23.4 89 1.3 NE 11 13 6 7 1003.8 1002.4 6.2
20/09:00pm 25.3 28.8 23.5 90 1.2 N 11 13 6 7 1003.4 1002.0 6.2
20/08:30pm 24.7 28.7 23.1 91 1.1 NE 7 13 4 7 1003.2 1001.8 6.2
20/08:13pm 24.5 28.9 22.8 90 1.2 E 4 9 2 5 1003.3 1001.9 6.2
20/08:00pm 24.4 24.7 22.3 88 1.4 SSW 24 46 13 25 1003.4 1002.0 6.0
20/07:52pm 25.5 24.9 20.5 74 3.3 NNW 24 59 13 32 1003.8 1002.4 4.8
20/07:50pm 29.2 30.5 22.7 68 4.5 NNE 20 59 11 32 1003.6 1002.2 3.6
20/07:30pm 29.1 31.4 23.5 72 3.9 NE 17 20 9 11 1002.4 1001.0 3.2
20/07:00pm 29.5 31.1 23.9 72 3.9 NE 22 26 12 14 1002.3 1000.9 3.2
20/06:30pm 29.2 31.5 23.4 71 4.0 NNE 17 20 9 11 1002.4 1001.0 3.2
20/06:00pm 29.2 31.4 23.2 70 4.2 NNE 17 22 9 12 1001.7 1000.4 3.2
20/05:30pm 28.8 32.8 23.7 74 3.5 E 9 11 5 6 1001.9 1000.6 3.2
20/05:00pm 28.3 32.3 23.7 76 3.2 SSW 9 13 5 7 1002.1 1000.8 3.2
20/04:30pm 28.0 32.4 23.8 78 2.9 WSW 7 11 4 6 1002.4 1001.0 3.2
20/04:00pm 26.9 31.2 23.6 82 2.3 SW 7 9 4 5 1002.7 1001.3 3.2
20/03:30pm 25.8 27.9 23.1 85 1.8 WSW 17 19 9 10 1002.9 1001.5 3.2
20/03:05pm 25.3 23.4 22.8 86 1.7 WSW 37 56 20 30 1003.0 1001.6 3.0
20/03:00pm 25.2 22.1 22.7 86 1.7 WSW 43 59 23 32 1002.9 1001.5 3.0
20/02:55pm 25.1 21.0 22.6 86 1.7 WSW 48 65 26 35 1002.8 1001.4 2.8
20/02:54pm 25.1 20.7 22.6 86 1.7 WSW 50 65 27 35 1002.8 1001.4 2.8
20/02:33pm 26.5 19.1 21.7 75 3.2 WSW 63 96 34 52 1003.3 1001.9 0.6
20/02:30pm 29.4 22.7 20.8 60 5.8 W 57 96 31 52 1003.0 1001.6 0.2
20/02:25pm 31.3 25.6 18.6 46 8.3 NW 46 96 25 52 1002.8 1001.4 0.2
20/02:24pm 33.2 28.1 18.6 42 9.6 NNW 43 96 23 52 1002.6 1001.2 0.2
20/02:23pm 35.4 31.0 18.5 37 11.1 NNW 39 83 21 45 1002.5 1001.1 0.2
20/02:04pm 37.1 32.7 17.6 31 12.8 NNW 37 56 20 30 1001.6 1000.3 0.2
20/02:00pm 37.3 32.4 17.3 30 13.1 NNW 39 56 21 30 1001.6 1000.3 0.2
20/01:43pm 36.3 32.8 17.9 33 12.1 NNW 33 54 18 29 1001.9 1000.6 0.2
20/01:30pm 36.4 32.4 18.5 35 11.8 NW 37 50 20 27 1002.5 1001.1 0.2
20/01:28pm 36.2 32.5 18.3 34 11.8 NW 35 50 19 27 1002.5 1001.1 0.2
20/01:26pm 35.8 31.8 18.4 35 11.5 NW 37 50 20 27 1002.6 1001.2 0.2
20/01:13pm 37.4 34.0 19.8 35 11.9 NNW 37 56 20 30 1002.9 1001.5 0.2
20/01:00pm 35.8 32.7 19.7 39 10.8 NNW 35 50 19 27 1003.2 1001.8 0.2
20/12:35pm 35.6 33.0 19.9 39 10.6 N 33 59 18 32 1003.8 1002.4 0.2
20/12:30pm 36.4 34.1 20.6 39 10.7 N 33 44 18 24 1003.9 1002.5 0.2
20/12:00pm 33.8 31.7 20.6 46 8.9 N 32 44 17 24 1004.6 1003.2 0.2
20/11:30am 31.7 30.0 20.6 51 7.5 N 30 39 16 21 1005.1 1003.8 0.2
20/11:00am 31.2 28.7 20.8 54 7.0 N 35 46 19 25 1005.6 1004.3 0.2
20/10:30am 30.9 28.5 21.1 56 6.6 N 35 50 19 27 1005.9 1004.6 0.2
20/10:00am 29.7 27.9 21.6 61 5.5 NNE 33 48 18 26 1006.2 1004.9 0.0
20/09:51am 28.8 26.7 21.6 65 4.9 NNE 35 54 19 29 1006.4 1005.1 0.0
20/09:30am 28.1 26.2 21.4 67 4.5 NNE 33 44 18 24 1006.6 1005.3 0.0
20/09:00am 26.5 23.6 20.8 71 3.8 NNE 37 52 20 28 1006.9 1005.6 1.4
20/08:30am 26.2 23.4 21.0 73 3.5 NNE 37 50 20 27 1007.1 1005.7 1.4
20/08:00am 25.6 23.6 21.1 76 3.0 NNE 33 43 18 23 1006.7 1005.4 1.4
20/07:30am 24.7 23.1 20.8 79 2.6 NNE 30 39 16 21 1006.9 1005.6 1.4
20/07:00am 24.2 22.9 20.7 81 2.3 NNE 28 37 15 20 1006.8 1005.5 1.4
20/06:30am 23.7 22.5 20.8 84 1.9 NE 28 32 15 17 1006.6 1005.3 1.4
20/06:00am 23.5 22.3 20.8 85 1.8 NE 28 37 15 20 1006.3 1005.0 1.4
20/05:30am 23.6 22.4 20.9 85 1.8 NE 28 37 15 20 1006.2 1004.9 1.4
20/05:00am 23.7 22.4 21.4 87 1.5 NE 30 37 16 20 1006.2 1004.9 1.4
20/04:30am 23.8 22.2 21.5 87 1.5 NE 32 37 17 20 1005.9 1004.6 1.4
20/04:00am 23.8 23.0 21.7 88 1.4 NE 28 35 15 19 1006.2 1004.9 1.4
20/03:30am 24.4 24.7 21.5 84 1.9 NE 22 30 12 16 1006.7 1005.4 1.2
20/03:00am 24.3 25.3 21.8 86 1.7 E 19 26 10 14 1007.1 1005.7 1.2
20/02:30am 24.6 26.7 21.7 84 1.9 E 13 19 7 10 1007.5 1006.1 1.2
20/02:00am 24.8 25.6 21.3 81 2.3 NE 19 26 10 14 1007.5 1006.1 1.2
20/01:30am 25.1 26.2 21.2 79 2.6 NE 17 24 9 13 1007.6 1006.2 1.2
20/01:00am 25.5 25.1 21.6 79 2.6 NE 26 33 14 18 1007.5 1006.1 1.2
20/12:30am 25.2 23.4 21.5 80 2.5 NE 33 43 18 23 1007.5 1006.1 1.2
20/12:00am 24.9 22.7 21.4 81 2.3 NE 35 44 19 24 1007.5 1006.1 1.2
 
Date/Time
EDT
Temp
°C
App
Temp
°C
Dew
Point
°C
Rel
Hum
%
Delta-T
°C
Wind Press
QNH
hPa
Press
MSL
hPa
Rain since
9am
mm
Dir  Spd
km/h
Gust
km/h
Spd
kts
Gust
kts
19/11:30pm 25.1 22.3 21.8 82 2.2 NE 39 54 21 29 1007.6 1006.2 1.2
19/11:08pm 25.3 22.6 22.0 82 2.2 NE 39 50 21 27 1007.5 1006.1 1.2
19/11:00pm 25.2 23.3 22.1 83 2.1 NE 35 50 19 27 1007.6 1006.2 1.2
19/10:51pm 25.1 23.9 22.2 84 2.0 NNE 32 41 17 22 1007.8 1006.4 1.0
19/10:30pm 26.7 23.9 21.7 74 3.4 NE 39 59 21 32 1007.3 1005.9 0.0
19/10:04pm 27.5 23.7 21.3 69 4.2 NE 43 61 23 33 1007.2 1005.8 0.0
19/10:00pm 28.0 24.0 21.3 67 4.5 NE 44 59 24 32 1007.1 1005.7 0.0
19/09:31pm 29.4 24.5 20.3 58 6.0 NE 46 65 25 35 1006.6 1005.3 0.0
19/09:30pm 29.5 24.9 20.1 57 6.2 NE 44 65 24 35 1006.6 1005.3 0.0
19/09:24pm 31.3 28.7 17.9 44 8.7 NE 28 65 15 35 1006.4 1005.1 0.0
19/09:23pm 31.4 29.4 17.3 43 9.0 NE 24 52 13 28 1006.3 1005.0 0.0
19/09:00pm 33.7 33.8 16.6 36 11.0 NE 11 19 6 10 1005.4 1004.1 0.0
19/08:30pm 34.2 33.9 16.5 34 11.3 ENE 13 15 7 8 1005.0 1003.6 0.0
19/08:00pm 34.7 35.0 16.1 33 11.9 NNW 9 19 5 10 1004.8 1003.4 0.0
19/07:30pm 36.5 34.7 15.6 29 13.3 SW 19 22 10 12 1004.5 1003.1 0.0
19/07:00pm 37.5 35.0 17.0 30 13.4 W 26 37 14 20 1004.2 1002.8 0.0
19/06:30pm 37.8 36.6 16.1 27 14.0 W 17 20 9 11 1003.9 1002.5 0.0
19/06:00pm 37.9 37.3 15.7 27 14.2 WNW 13 19 7 10 1003.8 1002.4 0.0
19/05:30pm 39.2 37.9 14.9 23 15.4 WNW 15 26 8 14 1003.9 1002.5 0.0
19/05:00pm 39.8 39.5 15.4 23 15.7 W 11 24 6 13 1004.1 1002.7 0.0
19/04:30pm 39.7 38.2 15.3 23 15.6 WSW 17 30 9 16 1004.7 1003.3 0.0
19/04:00pm 38.8 39.0 15.8 25 14.8 WNW 9 24 5 13 1005.1 1003.8 0.0
19/03:30pm 37.7 37.1 16.6 28 13.7 W 15 20 8 11 1005.9 1004.6 0.0
19/03:00pm 38.9 37.5 16.5 26 14.6 W 19 28 10 15 1006.5 1005.2 0.0
19/02:30pm 38.7 37.6 16.3 26 14.5 WSW 17 28 9 15 1007.1 1005.7 0.0
19/02:00pm 38.0 37.3 17.4 29 13.5 WSW 17 30 9 16 1007.6 1006.2 0.0
19/01:30pm 38.2 37.9 16.5 28 14.0 NW 13 26 7 14 1008.1 1006.7 0.0
19/01:00pm 37.4 37.3 17.9 31 12.9 NW 15 26 8 14 1008.3 1006.9 0.0

Other Formats:

Comma delimited format used in spreadsheet applications
http://www.bom.gov.au/fwo/IDN60801/IDN60801.95527.axf

JavaScript Object Notation format (JSON) in row-major order
http://www.bom.gov.au/fwo/IDN60801/IDN60801.95527.json